Time;durP1;ratioP1;P1;durP2;ratioP2;P2;SDS_P1;SDS_P2;PMS_P1;PMS_P2;Temp;Humidity;BMP_temperature;BMP_pressure;BME280_temperature;BME280_humidity;BME280_pressure;Samples;Min_cycle;Max_cycle;Signal;HPM_P1;HPM_P2
2022/04/13 00:01:57;;;;;;;9.93;5.85;;;11.10;99.90;;;;;;5017377;28;20080;-87
2022/04/13 00:04:22;;;;;;;10.35;5.57;;;11.10;99.90;;;;;;5017151;28;20052;-88
2022/04/13 00:06:48;;;;;;;9.90;6.35;;;11.10;99.90;;;;;;5017049;28;20037;-87
2022/04/13 00:09:15;;;;;;;10.80;6.55;;;11.10;99.90;;;;;;5017175;28;20511;-87
2022/04/13 00:11:40;;;;;;;10.77;5.70;;;11.20;99.90;;;;;;5017145;28;20452;-87
2022/04/13 00:14:07;;;;;;;9.95;6.40;;;11.10;99.90;;;;;;5016979;28;20037;-87
2022/04/13 00:16:32;;;;;;;8.93;5.18;;;11.10;99.90;;;;;;5017167;28;20036;-87
2022/04/13 00:18:58;;;;;;;10.52;5.80;;;11.20;99.90;;;;;;5017141;28;20474;-87
2022/04/13 00:21:24;;;;;;;16.08;6.20;;;11.20;99.90;;;;;;5016766;28;20124;-87
2022/04/13 00:23:49;;;;;;;10.05;5.47;;;11.10;99.90;;;;;;5016852;28;20589;-87
2022/04/13 00:26:15;;;;;;;10.55;5.38;;;11.00;99.90;;;;;;5016466;28;20029;-87
2022/04/13 00:28:41;;;;;;;13.02;6.55;;;11.00;99.90;;;;;;5033575;28;20040;-87
2022/04/13 00:31:07;;;;;;;11.68;5.55;;;11.00;99.90;;;;;;5016833;28;20029;-87
2022/04/13 00:33:33;;;;;;;10.43;5.75;;;10.90;99.90;;;;;;5016939;28;20392;-87
2022/04/13 00:35:59;;;;;;;8.95;5.90;;;10.80;99.90;;;;;;5016942;28;20069;-87
2022/04/13 00:38:25;;;;;;;9.07;6.05;;;10.70;99.90;;;;;;5033001;28;20029;-87
2022/04/13 00:40:51;;;;;;;13.43;6.90;;;10.60;99.90;;;;;;5016447;28;20041;-88
2022/04/13 00:43:17;;;;;;;11.63;6.38;;;10.60;99.90;;;;;;5033749;28;20033;-87
2022/04/13 00:45:47;;;;;;;12.60;6.40;;;10.70;99.90;;;;;;5016192;28;20041;-87
2022/04/13 00:48:31;;;;;;;12.60;6.13;;;10.80;99.90;;;;;;5016117;28;20030;-87
2022/04/13 00:51:00;;;;;;;12.55;6.57;;;10.90;99.90;;;;;;5015832;28;20040;-87
2022/04/13 00:53:26;;;;;;;8.68;5.80;;;10.90;99.90;;;;;;5015929;28;20128;-87
2022/04/13 00:55:56;;;;;;;14.18;6.68;;;10.90;99.90;;;;;;5015695;28;20115;-87
2022/04/13 00:58:25;;;;;;;13.20;6.20;;;10.90;99.90;;;;;;5016329;28;20163;-87
2022/04/13 01:00:53;;;;;;;8.60;5.60;;;10.90;99.90;;;;;;5015444;28;20551;-87
2022/04/13 01:03:24;;;;;;;9.90;5.53;;;10.80;99.90;;;;;;5016176;28;20128;-88
2022/04/13 01:05:51;;;;;;;9.40;5.85;;;10.70;99.90;;;;;;5016143;28;20040;-87
2022/04/13 01:08:18;;;;;;;8.73;5.80;;;10.60;99.90;;;;;;5016053;28;20033;-87
2022/04/13 01:10:46;;;;;;;7.95;4.68;;;10.50;99.90;;;;;;5015888;28;20137;-87
2022/04/13 01:13:12;;;;;;;13.07;5.68;;;10.50;99.90;;;;;;5016096;28;20053;-88
2022/04/13 01:15:38;;;;;;;11.23;6.30;;;10.40;99.90;;;;;;5016236;28;20030;-88
2022/04/13 01:18:04;;;;;;;10.40;6.50;;;10.40;99.90;;;;;;5015996;28;20025;-88
2022/04/13 01:20:30;;;;;;;10.68;6.63;;;10.30;99.90;;;;;;5015776;28;20162;-88
2022/04/13 01:22:56;;;;;;;11.50;5.95;;;10.30;99.90;;;;;;5016160;28;20030;-88
2022/04/13 01:25:22;;;;;;;11.68;6.32;;;10.20;99.90;;;;;;5015800;28;20033;-87
2022/04/13 01:27:48;;;;;;;8.68;5.50;;;10.00;99.90;;;;;;5015971;28;20036;-87
2022/04/13 01:30:14;;;;;;;15.38;5.97;;;10.00;99.90;;;;;;5015747;28;20037;-88
2022/04/13 01:32:40;;;;;;;11.13;6.82;;;9.90;99.90;;;;;;5015668;28;20030;-87
2022/04/13 01:35:06;;;;;;;9.35;6.30;;;9.80;99.90;;;;;;5015379;28;20488;-88
2022/04/13 01:37:34;;;;;;;10.70;4.80;;;9.80;99.90;;;;;;5033292;28;20026;-88
2022/04/13 01:40:00;;;;;;;10.65;5.47;;;9.80;99.90;;;;;;5032117;28;20493;-87
2022/04/13 01:42:26;;;;;;;12.13;5.82;;;9.70;99.90;;;;;;5015400;28;20038;-87
2022/04/13 01:44:51;;;;;;;10.48;5.47;;;9.70;99.90;;;;;;5015308;28;20056;-87
2022/04/13 01:47:17;;;;;;;210.90;104.75;;;9.70;99.90;;;;;;5015723;28;20025;-88
2022/04/13 01:49:43;;;;;;;52.90;28.35;;;9.50;99.90;;;;;;5015450;28;20039;-87
2022/04/13 01:52:10;;;;;;;26.13;10.27;;;9.40;99.90;;;;;;5048276;28;20030;-87
2022/04/13 01:54:36;;;;;;;13.32;7.18;;;9.30;99.90;;;;;;5031871;28;20087;-86
2022/04/13 01:57:02;;;;;;;10.30;6.65;;;9.20;99.90;;;;;;5015278;28;20112;-88
2022/04/13 01:59:28;;;;;;;11.05;6.40;;;9.20;99.90;;;;;;5015424;28;20034;-87
2022/04/13 02:01:54;;;;;;;10.40;5.80;;;9.20;99.90;;;;;;5015557;28;20033;-87
2022/04/13 02:04:22;;;;;;;13.85;6.35;;;9.10;99.90;;;;;;5015639;28;20026;-87
2022/04/13 02:06:48;;;;;;;13.35;6.55;;;9.00;99.90;;;;;;5015296;28;20038;-87
2022/04/13 02:09:18;;;;;;;12.02;7.28;;;8.90;99.90;;;;;;5015090;28;20037;-87
2022/04/13 02:11:46;;;;;;;13.88;7.30;;;8.90;99.90;;;;;;5033820;28;20655;-87
2022/04/13 02:14:12;;;;;;;12.43;7.72;;;8.90;99.90;;;;;;5019222;28;20037;-87
2022/04/13 02:16:39;;;;;;;15.50;7.00;;;9.10;99.90;;;;;;5019222;28;20057;-87
2022/04/13 02:19:07;;;;;;;11.88;6.57;;;9.20;99.90;;;;;;5019141;28;20036;-87
2022/04/13 02:21:34;;;;;;;14.45;7.00;;;9.20;99.90;;;;;;5018919;28;20033;-87
2022/04/13 02:24:18;;;;;;;10.32;6.13;;;9.20;99.90;;;;;;5018925;28;20047;-87
2022/04/13 02:26:43;;;;;;;9.75;5.90;;;9.00;99.90;;;;;;5018911;28;20256;-87
2022/04/13 02:29:10;;;;;;;11.07;5.60;;;9.00;99.90;;;;;;5019038;28;20094;-87
2022/04/13 02:31:35;;;;;;;9.45;5.80;;;8.80;99.90;;;;;;5018990;28;20034;-87
2022/04/13 02:34:04;;;;;;;8.18;5.15;;;8.70;99.90;;;;;;5018908;28;20038;-87
2022/04/13 02:36:30;;;;;;;9.35;6.25;;;8.70;99.90;;;;;;5018785;28;20554;-87
2022/04/13 02:38:56;;;;;;;9.77;6.18;;;8.70;99.90;;;;;;5018809;28;20036;-87
2022/04/13 02:41:22;;;;;;;10.07;6.63;;;8.70;99.90;;;;;;5018552;28;20393;-87
2022/04/13 02:43:48;;;;;;;12.60;6.57;;;8.80;99.90;;;;;;5018469;28;20465;-87
2022/04/13 02:46:13;;;;;;;11.77;5.70;;;8.80;99.90;;;;;;5036097;28;20033;-87
2022/04/13 02:48:39;;;;;;;9.43;5.97;;;8.90;99.90;;;;;;5018131;28;20044;-87
2022/04/13 02:51:05;;;;;;;12.75;6.72;;;8.90;99.90;;;;;;5018132;28;20087;-87
2022/04/13 02:53:31;;;;;;;13.10;7.00;;;9.00;99.90;;;;;;5036046;28;20472;-87
2022/04/13 02:55:58;;;;;;;14.50;7.25;;;9.00;99.90;;;;;;5036057;28;20102;-87
2022/04/13 02:58:24;;;;;;;13.23;6.13;;;9.20;99.90;;;;;;5018498;28;20029;-87
2022/04/13 03:00:50;;;;;;;10.57;6.15;;;9.20;99.90;;;;;;5018355;28;20172;-87
2022/04/13 03:03:19;;;;;;;10.90;6.03;;;9.30;99.90;;;;;;5018121;28;20033;-87
2022/04/13 03:05:44;;;;;;;10.40;5.63;;;9.40;99.90;;;;;;5018218;28;20049;-87
2022/04/13 03:08:10;;;;;;;10.25;6.22;;;9.40;99.90;;;;;;5018020;28;20033;-87
2022/04/13 03:10:36;;;;;;;9.95;5.57;;;9.40;99.90;;;;;;5018260;28;20033;-87
2022/04/13 03:13:03;;;;;;;14.27;5.68;;;9.50;99.90;;;;;;5018470;28;20041;-87
2022/04/13 03:15:29;;;;;;;11.35;5.90;;;9.40;99.90;;;;;;5018140;28;20040;-87
2022/04/13 03:17:54;;;;;;;13.32;5.45;;;9.40;99.90;;;;;;5018071;28;20385;-87
2022/04/13 03:20:20;;;;;;;8.98;5.65;;;9.40;99.90;;;;;;5018238;28;20047;-87
2022/04/13 03:22:46;;;;;;;14.65;6.28;;;9.50;99.90;;;;;;5017917;28;20083;-87
2022/04/13 03:25:12;;;;;;;10.73;5.82;;;9.50;99.90;;;;;;5017554;28;20396;-87
2022/04/13 03:27:38;;;;;;;13.00;5.53;;;9.40;99.90;;;;;;5018244;28;20029;-87
2022/04/13 03:30:05;;;;;;;13.25;5.70;;;9.30;99.90;;;;;;5018062;28;20087;-88
2022/04/13 03:32:38;;;;;;;12.07;6.10;;;9.20;99.90;;;;;;5017878;28;20029;-88
2022/04/13 03:35:07;;;;;;;11.30;5.65;;;9.10;99.90;;;;;;5017743;28;20033;-87
2022/04/13 03:37:33;;;;;;;10.15;5.70;;;8.90;99.90;;;;;;5001611;28;20198;-87
2022/04/13 03:40:12;;;;;;;9.93;5.65;;;8.80;99.90;;;;;;5017616;28;20076;-87
2022/04/13 03:42:39;;;;;;;11.15;6.13;;;8.70;99.90;;;;;;5017425;28;20048;-87
2022/04/13 03:45:11;;;;;;;6.88;5.00;;;8.60;99.90;;;;;;5017869;28;20072;-87
2022/04/13 03:47:39;;;;;;;11.23;5.38;;;8.50;99.90;;;;;;5034212;28;20036;-87
2022/04/13 03:50:06;;;;;;;11.35;6.25;;;8.40;99.90;;;;;;5017678;28;20040;-87
2022/04/13 03:52:33;;;;;;;10.15;6.22;;;8.30;99.90;;;;;;5017363;28;20128;-87
2022/04/13 03:54:59;;;;;;;12.18;6.75;;;8.30;99.90;;;;;;5017776;28;20473;-87
2022/04/13 03:57:25;;;;;;;12.35;6.80;;;8.20;99.90;;;;;;5017077;28;20072;-87
2022/04/13 03:59:50;;;;;;;10.70;6.80;;;8.10;99.90;;;;;;5017262;28;20095;-87
2022/04/13 04:02:16;;;;;;;12.23;5.97;;;8.10;99.90;;;;;;5034881;28;20053;-87
2022/04/13 04:04:42;;;;;;;13.45;7.10;;;8.00;99.90;;;;;;5017410;28;20080;-87
2022/04/13 04:07:08;;;;;;;11.30;6.65;;;8.00;99.90;;;;;;5017466;28;20083;-87
2022/04/13 04:09:34;;;;;;;11.55;6.55;;;7.90;99.90;;;;;;5035184;28;20070;-87
2022/04/13 04:12:00;;;;;;;14.50;7.22;;;7.90;99.90;;;;;;5017524;28;20033;-87
2022/04/13 04:14:26;;;;;;;13.00;7.10;;;7.80;99.90;;;;;;5017350;28;20025;-87
2022/04/13 04:16:52;;;;;;;13.40;7.75;;;7.80;99.90;;;;;;5034948;28;20109;-87
2022/04/13 04:19:18;;;;;;;14.43;7.30;;;7.70;99.90;;;;;;5014907;28;20671;-87
2022/04/13 04:21:43;;;;;;;11.95;7.35;;;7.70;99.90;;;;;;5014802;28;20048;-87
2022/04/13 04:24:09;;;;;;;11.57;6.97;;;7.70;99.90;;;;;;5017002;28;20078;-87
2022/04/13 04:26:35;;;;;;;9.90;5.97;;;7.70;99.90;;;;;;5016187;28;20504;-87
2022/04/13 04:29:01;;;;;;;12.02;6.50;;;7.60;99.90;;;;;;5000600;28;20048;-87
2022/04/13 04:34:10;;;;;;;13.55;6.63;;;7.40;99.90;;;;;;5032576;28;20115;-87
2022/04/13 04:36:36;;;;;;;10.13;6.75;;;7.40;99.90;;;;;;5015228;28;20029;-87
2022/04/13 04:39:02;;;;;;;12.85;6.78;;;7.40;99.90;;;;;;5016652;28;20374;-89
2022/04/13 04:41:39;;;;;;;11.73;6.95;;;7.30;99.90;;;;;;5017669;28;20025;-90
2022/04/13 04:44:05;;;;;;;12.13;7.25;;;7.30;99.90;;;;;;5017710;28;20044;-90
2022/04/13 04:46:31;;;;;;;13.55;7.05;;;7.30;99.90;;;;;;5033878;28;20100;-89
2022/04/13 04:48:56;;;;;;;13.95;7.40;;;7.30;99.90;;;;;;5017816;28;20026;-90
2022/04/13 04:51:22;;;;;;;15.65;7.32;;;7.30;99.90;;;;;;5017229;28;20128;-90
2022/04/13 04:53:48;;;;;;;13.70;7.15;;;7.30;99.90;;;;;;5017178;28;20108;-91
2022/04/13 04:56:15;;;;;;;16.05;7.88;;;7.30;99.90;;;;;;5017657;28;20033;-90
2022/04/13 04:58:41;;;;;;;23.10;12.75;;;7.30;99.90;;;;;;5017254;28;20025;-90
2022/04/13 05:01:06;;;;;;;22.02;11.13;;;7.40;99.90;;;;;;5017656;28;20083;-90
2022/04/13 05:03:33;;;;;;;21.05;11.95;;;7.40;99.90;;;;;;5017942;28;20543;-90
2022/04/13 05:05:59;;;;;;;22.65;13.05;;;7.50;99.90;;;;;;5034058;28;20040;-90
2022/04/13 05:08:27;;;;;;;22.52;13.43;;;7.60;99.90;;;;;;5017198;28;20550;-91
2022/04/13 05:10:53;;;;;;;24.83;13.68;;;7.70;99.90;;;;;;5017552;28;20423;-90
2022/04/13 05:13:25;;;;;;;21.52;13.57;;;7.80;99.90;;;;;;5015872;28;20112;-90
2022/04/13 05:15:52;;;;;;;18.73;10.55;;;7.90;99.90;;;;;;5016856;28;20037;-90
2022/04/13 05:18:18;;;;;;;13.18;6.57;;;8.00;99.90;;;;;;5017301;28;20025;-90
2022/04/13 05:20:43;;;;;;;20.13;8.82;;;8.20;99.90;;;;;;5016419;28;20206;-90
2022/04/13 05:23:09;;;;;;;20.38;9.20;;;8.30;99.90;;;;;;5016735;28;20440;-90
2022/04/13 05:25:35;;;;;;;15.82;9.35;;;8.50;99.90;;;;;;5016920;28;20124;-90
2022/04/13 05:28:00;;;;;;;21.25;10.60;;;8.50;99.90;;;;;;5017216;28;20095;-91
2022/04/13 05:30:57;;;;;;;16.02;9.93;;;8.70;99.90;;;;;;5013937;28;20087;-90
2022/04/13 05:33:23;;;;;;;23.15;11.75;;;8.70;99.90;;;;;;5016450;28;20044;-90
2022/04/13 05:35:49;;;;;;;23.95;10.85;;;8.90;99.90;;;;;;5016680;28;20025;-90
2022/04/13 05:38:15;;;;;;;17.85;8.52;;;9.00;99.90;;;;;;5000717;28;20481;-90
2022/04/13 05:40:41;;;;;;;15.35;7.63;;;9.20;99.90;;;;;;5016750;28;20025;-90
2022/04/13 05:43:08;;;;;;;16.35;8.10;;;9.40;99.90;;;;;;5016168;28;20038;-90
2022/04/13 05:45:33;;;;;;;13.40;6.50;;;9.60;99.90;;;;;;5016699;28;20472;-89
2022/04/13 05:47:59;;;;;;;18.13;7.15;;;9.70;99.90;;;;;;5016193;28;20033;-91
2022/04/13 05:50:25;;;;;;;10.35;5.25;;;9.90;99.90;;;;;;5017010;28;20060;-90
2022/04/13 05:52:51;;;;;;;14.38;7.18;;;10.10;99.90;;;;;;5000468;28;20083;-89
2022/04/13 05:55:19;;;;;;;10.27;5.78;;;10.30;99.90;;;;;;5016901;28;20088;-89
2022/04/13 05:57:45;;;;;;;15.88;7.32;;;10.40;99.90;;;;;;5034112;28;20380;-89
2022/04/13 06:00:12;;;;;;;13.60;6.30;;;10.60;99.90;;;;;;5016819;28;20025;-89
2022/04/13 06:02:39;;;;;;;12.85;6.30;;;10.80;99.90;;;;;;5016518;28;20033;-89
2022/04/13 06:05:06;;;;;;;9.50;5.55;;;11.10;99.90;;;;;;5016548;28;20025;-89
2022/04/13 06:07:38;;;;;;;16.23;5.97;;;11.50;99.90;;;;;;5016522;28;20104;-89
2022/04/13 06:10:05;;;;;;;16.23;5.88;;;11.80;99.90;;;;;;5016737;28;20055;-89
2022/04/13 06:12:31;;;;;;;13.50;6.47;;;12.10;99.90;;;;;;5016277;28;20021;-89
2022/04/13 06:15:11;;;;;;;14.00;6.88;;;12.40;99.90;;;;;;5016472;28;20036;-89
2022/04/13 06:17:37;;;;;;;12.43;6.03;;;12.60;99.90;;;;;;5016036;28;20056;-90
2022/04/13 06:20:05;;;;;;;12.88;5.95;;;12.70;99.90;;;;;;5032893;28;20030;-89
2022/04/13 06:22:42;;;;;;;14.27;6.07;;;12.90;99.90;;;;;;5016069;28;20030;-88
2022/04/13 06:25:10;;;;;;;8.77;5.25;;;13.00;99.90;;;;;;5016399;28;20026;-89
2022/04/13 06:27:36;;;;;;;10.40;5.35;;;13.10;99.90;;;;;;5015796;28;20396;-90
2022/04/13 06:30:03;;;;;;;13.00;4.50;;;13.30;99.90;;;;;;5016130;28;20032;-89
2022/04/13 06:32:39;;;;;;;7.13;4.38;;;13.40;99.90;;;;;;5016177;28;20046;-89
2022/04/13 06:35:08;;;;;;;12.77;4.50;;;13.50;99.90;;;;;;5016725;28;20033;-89
2022/04/13 06:37:39;;;;;;;6.63;4.20;;;13.60;99.90;;;;;;5032594;28;20030;-89
2022/04/13 06:40:05;;;;;;;8.27;4.20;;;13.70;99.90;;;;;;5016117;28;20714;-90
2022/04/13 06:42:38;;;;;;;6.97;3.97;;;13.80;99.90;;;;;;5032726;28;20065;-86
2022/04/13 06:45:10;;;;;;;7.45;3.90;;;13.80;99.90;;;;;;5016417;28;20033;-89
2022/04/13 06:47:36;;;;;;;12.55;4.80;;;13.80;99.90;;;;;;5013844;28;20402;-88
2022/04/13 06:50:03;;;;;;;11.07;4.93;;;13.80;99.90;;;;;;5016254;28;20036;-89
2022/04/13 06:52:36;;;;;;;12.50;4.88;;;13.90;99.90;;;;;;5014225;28;20709;-89
2022/04/13 06:55:03;;;;;;;6.90;4.03;;;13.90;99.90;;;;;;5033015;28;20487;-89
2022/04/13 06:57:29;;;;;;;8.57;4.50;;;14.00;99.90;;;;;;5032370;28;20025;-90
2022/04/13 06:59:54;;;;;;;7.97;4.10;;;14.00;99.90;;;;;;5051774;28;20037;-89
2022/04/13 07:02:20;;;;;;;7.25;4.30;;;14.10;99.90;;;;;;5035814;28;20044;-89
2022/04/13 07:04:46;;;;;;;8.85;3.65;;;14.10;99.90;;;;;;5019406;28;20026;-89
2022/04/13 07:07:11;;;;;;;6.57;4.20;;;14.30;99.90;;;;;;5036189;28;20091;-89
2022/04/13 07:09:37;;;;;;;7.88;4.22;;;14.30;99.90;;;;;;5019721;28;20030;-89
2022/04/13 07:12:03;;;;;;;10.73;5.05;;;14.50;99.90;;;;;;5035847;28;20112;-89
2022/04/13 07:14:29;;;;;;;5.88;3.67;;;14.70;99.90;;;;;;5019325;28;20038;-89
2022/04/13 07:16:55;;;;;;;6.97;3.85;;;14.90;99.90;;;;;;5052041;28;20440;-89
2022/04/13 07:19:21;;;;;;;8.43;4.40;;;15.10;99.90;;;;;;5035214;28;20060;-89
2022/04/13 07:21:46;;;;;;;8.80;4.32;;;15.20;99.90;;;;;;5035352;28;20552;-89
2022/04/13 07:24:12;;;;;;;5.72;3.58;;;15.30;99.90;;;;;;5035610;28;20033;-89
2022/04/13 07:26:38;;;;;;;10.82;4.95;;;15.40;99.90;;;;;;5052321;28;20037;-90
2022/04/13 07:29:04;;;;;;;7.38;4.10;;;15.50;99.90;;;;;;5035441;28;20041;-90
2022/04/13 07:31:31;;;;;;;8.63;4.65;;;15.40;99.90;;;;;;5019038;28;20037;-90
2022/04/13 07:34:18;;;;;;;8.45;4.30;;;15.50;99.90;;;;;;5019006;28;20041;-89
2022/04/13 07:36:44;;;;;;;6.85;4.03;;;15.60;99.90;;;;;;5019383;28;20200;-89
2022/04/13 07:39:09;;;;;;;8.57;4.43;;;15.80;99.90;;;;;;5019393;28;20049;-90
2022/04/13 07:41:35;;;;;;;10.68;4.43;;;16.00;99.90;;;;;;5019311;28;20033;-90
2022/04/13 07:44:01;;;;;;;8.45;4.15;;;16.00;99.90;;;;;;5018961;28;20473;-90
2022/04/13 07:46:27;;;;;;;8.30;4.10;;;16.20;99.90;;;;;;5018918;28;20033;-89
2022/04/13 07:48:54;;;;;;;8.25;4.55;;;16.40;99.90;;;;;;5051990;28;20080;-89
2022/04/13 07:51:20;;;;;;;7.45;3.75;;;16.60;99.90;;;;;;5019330;28;20052;-89
2022/04/13 07:53:46;;;;;;;17.10;5.28;;;16.80;99.90;;;;;;5017961;28;20083;-90
2022/04/13 07:56:11;;;;;;;8.07;4.38;;;16.80;99.90;;;;;;5018526;28;20022;-89
2022/04/13 07:58:37;;;;;;;9.43;4.80;;;16.80;99.90;;;;;;5018186;28;20025;-89
2022/04/13 08:01:03;;;;;;;8.85;4.47;;;16.80;99.90;;;;;;5018665;28;20100;-89
2022/04/13 08:03:29;;;;;;;10.32;4.80;;;17.00;99.90;;;;;;5014942;28;20065;-89
2022/04/13 08:05:55;;;;;;;11.77;4.72;;;16.90;99.90;;;;;;5018624;28;20034;-90
2022/04/13 08:08:26;;;;;;;13.63;5.43;;;16.70;99.90;;;;;;5018512;28;20025;-89
2022/04/13 08:10:52;;;;;;;12.57;4.63;;;16.60;99.90;;;;;;5017814;28;20091;-90
2022/04/13 08:13:18;;;;;;;13.50;5.93;;;17.00;99.90;;;;;;5018050;28;20025;-89
2022/04/13 08:15:43;;;;;;;6.32;4.20;;;17.20;99.90;;;;;;5018518;28;20107;-90
2022/04/13 08:18:09;;;;;;;11.57;4.63;;;17.50;99.90;;;;;;5018375;28;20477;-90
2022/04/13 08:20:35;;;;;;;13.95;4.97;;;17.60;99.90;;;;;;5051553;28;20141;-90
2022/04/13 08:23:01;;;;;;;10.77;4.32;;;17.50;99.90;;;;;;5034644;28;20061;-91
2022/04/13 08:25:27;;;;;;;10.88;5.22;;;17.50;99.90;;;;;;5051452;28;20040;-89
2022/04/13 08:27:52;;;;;;;15.73;5.25;;;17.60;99.90;;;;;;5018355;28;20034;-90
2022/04/13 08:30:47;;;;;;;8.82;5.15;;;17.80;99.90;;;;;;5051114;28;20124;-90
2022/04/13 08:33:13;;;;;;;14.02;5.43;;;17.60;99.90;;;;;;5018198;28;20037;-89
2022/04/13 08:35:40;;;;;;;13.88;4.72;;;17.80;99.90;;;;;;5034883;28;20167;-90
2022/04/13 08:38:06;;;;;;;9.05;4.75;;;17.90;99.90;;;;;;5051026;28;20473;-90
2022/04/13 08:40:41;;;;;;;9.18;5.10;;;18.10;99.90;;;;;;5035859;28;20032;-90
2022/04/13 08:43:11;;;;;;;10.52;4.60;;;18.20;99.90;;;;;;5034118;28;20041;-90
2022/04/13 08:45:47;;;;;;;6.78;4.55;;;18.20;99.90;;;;;;5017676;28;20037;-90
2022/04/13 08:48:18;;;;;;;9.07;4.78;;;18.30;99.90;;;;;;5015342;28;20029;-90
2022/04/13 08:51:08;;;;;;;13.70;4.93;;;18.30;99.90;;;;;;5018266;28;20358;-90
2022/04/13 08:53:39;;;;;;;11.30;4.70;;;18.10;99.90;;;;;;5026213;28;20053;-90
2022/04/13 08:56:08;;;;;;;12.10;5.25;;;17.90;99.90;;;;;;5050551;28;20025;-90
2022/04/13 08:58:40;;;;;;;8.88;5.03;;;18.30;99.90;;;;;;5009558;28;20116;-90
2022/04/13 09:01:14;;;;;;;8.75;5.20;;;19.20;99.70;;;;;;5017898;28;20060;-91
2022/04/13 09:03:46;;;;;;;7.85;4.03;;;20.30;98.20;;;;;;5015209;28;20057;-90
2022/04/13 09:06:13;;;;;;;9.60;4.57;;;21.30;95.90;;;;;;5016581;28;20025;-90
2022/04/13 09:08:51;;;;;;;8.27;4.40;;;21.90;93.60;;;;;;5017186;28;20481;-90
2022/04/13 09:11:34;;;;;;;7.07;4.47;;;22.80;91.10;;;;;;5034307;28;20423;-90
2022/04/13 09:14:02;;;;;;;11.80;4.75;;;23.80;87.50;;;;;;5033726;28;20555;-90
2022/04/13 09:16:29;;;;;;;10.13;4.43;;;24.50;85.20;;;;;;5016785;28;20040;-90
2022/04/13 09:18:55;;;;;;;7.45;4.00;;;24.80;77.30;;;;;;5016694;28;20484;-90
2022/04/13 09:21:22;;;;;;;6.97;4.30;;;25.10;77.50;;;;;;5016150;28;20025;-90
2022/04/13 09:23:48;;;;;;;7.72;4.07;;;25.30;72.20;;;;;;5016685;28;20036;-89
2022/04/13 09:26:17;;;;;;;7.15;3.33;;;24.90;72.60;;;;;;5016467;28;20033;-91
2022/04/13 09:28:43;;;;;;;9.63;4.00;;;24.60;72.40;;;;;;5016540;28;20087;-91
2022/04/13 09:31:09;;;;;;;10.80;3.70;;;24.70;69.20;;;;;;5016293;28;20033;-89
2022/04/13 09:33:34;;;;;;;8.85;3.17;;;24.00;67.00;;;;;;5034029;28;20040;-91
2022/04/13 09:36:00;;;;;;;7.32;3.75;;;24.10;69.30;;;;;;5016420;28;20025;-91
2022/04/13 09:38:27;;;;;;;7.03;3.53;;;23.40;69.90;;;;;;5016202;28;20079;-91
2022/04/13 09:40:53;;;;;;;7.25;3.20;;;22.90;70.50;;;;;;5034362;28;20117;-91
2022/04/13 09:43:21;;;;;;;10.57;4.97;;;23.00;72.70;;;;;;5013034;28;20661;-90
2022/04/13 09:45:50;;;;;;;10.75;4.28;;;23.40;71.90;;;;;;5016239;28;20033;-90
2022/04/13 09:48:18;;;;;;;8.85;3.88;;;23.80;72.30;;;;;;5016120;28;20052;-91
2022/04/13 09:50:46;;;;;;;6.07;2.67;;;23.80;72.10;;;;;;5016225;28;20033;-91
2022/04/13 09:53:14;;;;;;;9.50;3.85;;;24.00;71.00;;;;;;5016309;28;20047;-91
2022/04/13 09:55:44;;;;;;;6.05;3.03;;;24.20;71.40;;;;;;5016346;28;20520;-91
2022/04/13 09:58:15;;;;;;;3.22;2.30;;;24.30;69.30;;;;;;5016778;28;20499;-91
2022/04/13 10:00:43;;;;;;;11.77;3.30;;;24.10;69.60;;;;;;5016088;28;20497;-91
2022/04/13 10:03:11;;;;;;;24.08;16.48;;;24.40;67.00;;;;;;5015550;28;20033;-90
2022/04/13 10:05:37;;;;;;;35.40;20.75;;;24.80;65.70;;;;;;5016531;28;20508;-91
2022/04/13 10:08:05;;;;;;;8.52;2.70;;;25.00;63.70;;;;;;5016640;28;20030;-91
2022/04/13 10:10:31;;;;;;;5.75;2.33;;;25.00;62.10;;;;;;5016770;28;20030;-91
2022/04/13 10:12:57;;;;;;;5.53;2.95;;;25.50;58.90;;;;;;5016774;28;20123;-91
2022/04/13 10:15:23;;;;;;;6.18;2.53;;;26.00;59.40;;;;;;5016931;28;20037;-91
2022/04/13 10:17:49;;;;;;;7.05;3.17;;;26.40;59.40;;;;;;5016426;28;20037;-91
2022/04/13 10:20:15;;;;;;;12.82;3.10;;;26.60;58.40;;;;;;5016916;28;20029;-91
2022/04/13 10:22:58;;;;;;;15.95;2.85;;;26.60;57.60;;;;;;5016207;28;20033;-91
2022/04/13 10:25:25;;;;;;;9.43;1.90;;;26.80;56.80;;;;;;5016407;28;20197;-91
2022/04/13 10:27:59;;;;;;;6.80;2.25;;;26.70;54.00;;;;;;5032245;28;20017;-90
2022/04/13 10:30:27;;;;;;;6.95;2.72;;;26.80;55.00;;;;;;5014544;28;20033;-91
2022/04/13 10:33:03;;;;;;;7.50;2.42;;;26.80;54.10;;;;;;5016075;28;20034;-91
2022/04/13 10:35:30;;;;;;;5.97;2.35;;;26.80;53.60;;;;;;5019238;28;20515;-91
2022/04/13 10:37:56;;;;;;;6.35;2.42;;;26.70;53.00;;;;;;5020485;28;20029;-91
2022/04/13 10:40:29;;;;;;;7.20;2.40;;;27.00;55.00;;;;;;5020222;28;20633;-91
2022/04/13 10:43:13;;;;;;;10.38;2.45;;;27.40;56.00;;;;;;5019865;28;20033;-91
2022/04/13 10:45:41;;;;;;;6.13;2.33;;;27.60;55.20;;;;;;5019617;28;20029;-92
2022/04/13 10:48:09;;;;;;;8.15;2.40;;;27.50;53.90;;;;;;5019852;28;20045;-91
2022/04/13 10:50:55;;;;;;;8.52;2.33;;;26.80;54.00;;;;;;5020658;28;20025;-90
2022/04/13 10:53:25;;;;;;;9.00;2.28;;;26.50;54.70;;;;;;5019723;28;20670;-90
2022/04/13 10:55:58;;;;;;;6.68;1.88;;;26.80;55.10;;;;;;5020126;28;20033;-91
2022/04/13 10:58:58;;;;;;;11.23;2.50;;;26.80;53.80;;;;;;5019892;28;20034;-91
2022/04/13 11:01:28;;;;;;;5.77;2.30;;;27.30;54.60;;;;;;5019843;28;20034;-91
2022/04/13 11:03:56;;;;;;;9.43;2.47;;;26.90;53.70;;;;;;5019622;28;20044;-91
2022/04/13 11:06:22;;;;;;;7.20;2.35;;;26.80;54.00;;;;;;5019555;28;20029;-92
2022/04/13 11:09:03;;;;;;;10.05;2.58;;;26.90;54.00;;;;;;5019431;28;20033;-91
2022/04/13 11:11:31;;;;;;;6.35;2.40;;;27.30;53.00;;;;;;5019698;28;20477;-91
2022/04/13 11:13:57;;;;;;;8.07;2.28;;;27.90;52.60;;;;;;5019823;28;20128;-91
2022/04/13 11:16:24;;;;;;;9.48;2.38;;;28.00;52.80;;;;;;5019177;28;20037;-91
2022/04/13 11:19:05;;;;;;;9.02;2.47;;;27.80;51.80;;;;;;5019475;28;20037;-91
2022/04/13 11:21:31;;;;;;;;;;;27.60;51.90;;;;;;5037590;28;20477;-91
2022/04/13 11:23:57;;;;;;;6.85;2.10;;;27.40;51.60;;;;;;5035545;28;20004;-91
2022/04/13 11:26:35;;;;;;;12.43;2.33;;;27.70;52.00;;;;;;5019616;28;20030;-91
2022/04/13 11:29:17;;;;;;;7.38;1.92;;;28.10;51.30;;;;;;5035476;28;20017;-90
2022/04/13 11:32:01;;;;;;;7.93;2.00;;;28.80;50.90;;;;;;5035669;28;20021;-91
2022/04/13 11:34:31;;;;;;;10.50;2.10;;;28.30;50.70;;;;;;5052582;28;20029;-91
2022/04/13 11:37:05;;;;;;;9.02;2.22;;;28.10;51.70;;;;;;5018897;28;20033;-91
2022/04/13 11:39:49;;;;;;;8.05;2.15;;;27.80;51.70;;;;;;5019201;28;20181;-91
2022/04/13 11:42:27;;;;;;;7.88;2.30;;;27.70;53.40;;;;;;5035212;28;20539;-91
2022/04/13 11:45:00;;;;;;;9.60;2.70;;;26.80;52.30;;;;;;5034686;28;20136;-91
2022/04/13 11:47:40;;;;;;;13.75;1.90;;;27.00;52.30;;;;;;5018895;28;20032;-91
2022/04/13 11:50:40;;;;;;;7.82;2.13;;;27.90;50.90;;;;;;5018821;28;20075;-91
2022/04/13 11:53:10;;;;;;;17.30;2.75;;;28.80;51.30;;;;;;5018592;28;20080;-91
2022/04/13 11:55:46;;;;;;;8.57;2.03;;;28.40;52.10;;;;;;5019200;28;20041;-91
2022/04/13 11:58:13;;;;;;;11.18;2.35;;;28.30;50.20;;;;;;5018532;28;20044;-91
2022/04/13 12:00:56;;;;;;;8.48;1.80;;;28.40;51.10;;;;;;5051639;28;20025;-91
2022/04/13 12:03:26;;;;;;;12.20;3.00;;;28.30;51.00;;;;;;5018240;28;20124;-91
2022/04/13 12:05:59;;;;;;;13.60;2.33;;;28.10;52.30;;;;;;5018979;28;20366;-91
2022/04/13 12:08:28;;;;;;;11.20;2.45;;;27.60;53.20;;;;;;5018702;28;20041;-91
2022/04/13 12:10:55;;;;;;;10.80;2.33;;;26.80;53.30;;;;;;5018402;28;20564;-91
2022/04/13 12:13:21;;;;;;;7.43;1.65;;;27.10;52.90;;;;;;5051710;28;20096;-91
2022/04/13 12:15:55;;;;;;;9.90;2.10;;;27.40;52.30;;;;;;5017825;28;20029;-91
2022/04/13 12:18:43;;;;;;;10.43;2.17;;;27.80;52.10;;;;;;5018597;28;20099;-91
2022/04/13 12:21:11;;;;;;;7.20;1.90;;;27.70;51.10;;;;;;5017802;28;20033;-91
2022/04/13 12:23:39;;;;;;;5.90;2.13;;;27.40;52.30;;;;;;5017694;28;20574;-91
2022/04/13 12:26:06;;;;;;;8.85;2.13;;;27.30;52.20;;;;;;5017765;28;20499;-91
2022/04/13 12:28:32;;;;;;;10.90;2.38;;;27.20;51.70;;;;;;5017584;28;20029;-90
2022/04/13 12:31:06;;;;;;;8.15;2.17;;;26.60;52.40;;;;;;5018340;28;20025;-91
2022/04/13 12:33:32;;;;;;;9.50;2.00;;;26.50;51.90;;;;;;5035301;28;20067;-91
2022/04/13 12:36:01;;;;;;;9.63;2.90;;;26.20;54.40;;;;;;5017523;28;20068;-90
2022/04/13 12:38:46;;;;;;;17.90;2.38;;;26.30;53.60;;;;;;5018113;28;20052;-90
2022/04/13 12:41:16;;;;;;;12.30;2.75;;;26.30;53.60;;;;;;5034190;28;20075;-91
2022/04/13 12:43:43;;;;;;;18.88;2.50;;;26.00;55.20;;;;;;5017642;28;20037;-90
2022/04/13 12:46:20;;;;;;;14.40;2.75;;;25.50;54.30;;;;;;5034202;28;20033;-90
2022/04/13 12:48:51;;;;;;;13.20;2.72;;;25.50;52.50;;;;;;5017658;28;20785;-91
2022/04/13 12:51:18;;;;;;;6.18;2.30;;;25.70;53.90;;;;;;5018292;28;20032;-90
2022/04/13 12:53:56;;;;;;;11.73;2.90;;;25.90;54.00;;;;;;5035916;28;20040;-91